Time;durP1;ratioP1;P1;durP2;ratioP2;P2;SDS_P1;SDS_P2;PMS_P1;PMS_P2;Temp;Humidity;BMP_temperature;BMP_pressure;BME280_temperature;BME280_humidity;BME280_pressure;Samples;Min_cycle;Max_cycle;Signal;HPM_P1;HPM_P2
2023/10/06 00:00:35;;;;;;;15.73;6.38;;;;;;;11.31;74.90;97045.66;5094809;28;20098;-65
2023/10/06 00:03:05;;;;;;;16.30;6.85;;;;;;;11.28;75.12;97037.03;5094583;28;20455;-65
2023/10/06 00:05:34;;;;;;;14.52;6.75;;;;;;;11.27;75.06;97032.69;5094798;28;20048;-64
2023/10/06 00:08:00;;;;;;;15.60;7.72;;;;;;;11.21;74.87;97037.25;5094797;28;20080;-64
2023/10/06 00:10:27;;;;;;;15.82;7.40;;;;;;;11.26;75.36;97037.09;5094709;28;20119;-66
2023/10/06 00:12:58;;;;;;;12.10;6.68;;;;;;;11.28;75.36;97031.78;5094502;28;20051;-62
2023/10/06 00:15:35;;;;;;;11.85;6.95;;;;;;;11.31;75.39;97031.69;5094687;28;20044;-65
2023/10/06 00:18:07;;;;;;;15.68;6.93;;;;;;;11.29;74.56;97031.75;5094608;28;20048;-63
2023/10/06 00:20:48;;;;;;;16.20;7.32;;;;;;;11.29;74.83;97033.53;5094351;28;20052;-62
2023/10/06 00:23:20;;;;;;;15.70;7.07;;;;;;;11.26;74.39;97034.50;5094351;28;20486;-63
2023/10/06 00:25:51;;;;;;;14.02;6.90;;;;;;;11.18;74.88;97034.72;5094367;28;20058;-62
2023/10/06 00:28:19;;;;;;;17.75;7.50;;;;;;;11.16;75.52;97036.53;5094353;28;20048;-63
2023/10/06 00:30:50;;;;;;;12.88;7.03;;;;;;;11.09;76.05;97029.78;5094091;28;20044;-64
2023/10/06 00:33:17;;;;;;;14.45;7.32;;;;;;;11.10;76.13;97039.34;5094180;28;20040;-65
2023/10/06 00:35:48;;;;;;;12.63;6.85;;;;;;;11.09;75.39;97037.63;5094379;28;20409;-66
2023/10/06 00:38:16;;;;;;;10.23;6.30;;;;;;;11.03;75.17;97038.69;5094140;28;20051;-65
2023/10/06 00:40:50;;;;;;;16.33;7.15;;;;;;;11.01;75.46;97034.44;5094071;28;20086;-64
2023/10/06 00:43:30;;;;;;;14.13;7.07;;;;;;;10.96;76.61;97034.56;5094085;28;20051;-64
2023/10/06 00:46:00;;;;;;;18.30;6.93;;;;;;;10.98;77.10;97030.97;5093923;28;20048;-64
2023/10/06 00:48:29;;;;;;;12.23;6.38;;;;;;;10.98;77.04;97030.97;5094031;28;20055;-62
2023/10/06 00:50:58;;;;;;;17.20;8.23;;;;;;;11.01;76.96;97021.34;5093842;28;20056;-62
2023/10/06 00:53:31;;;;;;;17.70;7.20;;;;;;;11.03;76.70;97019.50;5093791;28;20058;-64
2023/10/06 00:56:00;;;;;;;18.27;7.75;;;;;;;11.02;76.41;97015.19;5093913;28;20047;-66
2023/10/06 00:58:33;;;;;;;14.00;6.90;;;;;;;11.02;75.78;97018.66;5093683;28;20059;-64
2023/10/06 01:01:00;;;;;;;15.02;6.80;;;;;;;11.01;76.17;97014.31;5093844;28;20481;-64
2023/10/06 01:03:27;;;;;;;14.77;7.32;;;;;;;10.98;77.05;97007.44;5093543;28;20054;-63
2023/10/06 01:06:01;;;;;;;14.50;7.15;;;;;;;10.98;77.37;97006.56;5093612;28;20044;-66
2023/10/06 01:08:31;;;;;;;17.38;6.82;;;;;;;10.93;77.71;97000.63;5093793;28;20040;-65
2023/10/06 01:11:11;;;;;;;13.73;7.03;;;;;;;10.91;78.14;96990.22;5093555;28;20498;-65
2023/10/06 01:13:46;;;;;;;15.02;7.63;;;;;;;10.90;77.58;96998.13;5093516;28;20127;-66
2023/10/06 01:16:15;;;;;;;15.10;6.30;;;;;;;10.89;77.21;96992.00;5093498;28;20474;-64
2023/10/06 01:18:42;;;;;;;15.70;7.60;;;;;;;10.85;76.92;96995.63;5093372;28;20482;-63
2023/10/06 01:21:17;;;;;;;14.23;6.63;;;;;;;10.81;77.21;96997.47;5093400;28;20044;-63
2023/10/06 01:23:48;;;;;;;16.70;7.85;;;;;;;10.79;78.13;96990.59;5093436;28;20040;-63
2023/10/06 01:26:14;;;;;;;;;;;;;;;10.78;78.09;96995.00;5093745;28;20130;-63
2023/10/06 01:28:45;;;;;;;14.68;6.88;;;;;;;10.72;80.29;96992.56;5093350;28;19920;-62
2023/10/06 01:31:14;;;;;;;14.70;6.60;;;;;;;10.75;79.51;96997.69;5093301;28;20051;-63
2023/10/06 01:33:45;;;;;;;14.27;6.93;;;;;;;10.74;79.19;96994.22;5093501;28;20047;-63
2023/10/06 01:36:15;;;;;;;16.20;7.25;;;;;;;10.80;78.99;96993.16;5093264;28;20055;-65
2023/10/06 01:38:43;;;;;;;16.73;7.00;;;;;;;10.81;79.27;96991.41;5093157;28;20048;-65
2023/10/06 01:41:13;;;;;;;13.27;6.82;;;;;;;10.81;78.83;96989.63;5093237;28;20117;-62
2023/10/06 01:43:40;;;;;;;13.35;7.22;;;;;;;10.82;78.54;96986.13;5093173;28;20139;-63
2023/10/06 01:46:13;;;;;;;14.02;6.80;;;;;;;10.81;78.25;96980.94;5093248;28;20083;-65
2023/10/06 01:48:40;;;;;;;16.17;6.90;;;;;;;10.82;78.40;96990.50;5093121;28;20048;-63
2023/10/06 01:51:13;;;;;;;17.25;6.97;;;;;;;10.79;79.00;96993.22;5093095;28;20088;-63
2023/10/06 01:53:41;;;;;;;15.73;6.20;;;;;;;10.79;78.87;96996.69;5093139;28;20048;-65
2023/10/06 01:56:08;;;;;;;12.50;7.03;;;;;;;10.82;79.06;96995.72;5093135;28;20055;-65
2023/10/06 01:58:37;;;;;;;10.90;6.78;;;;;;;10.77;78.94;96997.66;5092993;28;20051;-65
2023/10/06 02:01:07;;;;;;;15.52;7.78;;;;;;;10.72;80.40;97003.03;5092894;28;20123;-65
2023/10/06 02:03:38;;;;;;;23.48;7.30;;;;;;;10.70;80.40;97005.69;5092677;28;20059;-64
2023/10/06 02:06:13;;;;;;;12.95;6.40;;;;;;;10.69;81.14;97006.56;5094003;28;20405;-65
2023/10/06 02:08:42;;;;;;;17.85;6.90;;;;;;;10.63;80.67;96998.06;5097087;28;20048;-64
2023/10/06 02:11:12;;;;;;;20.90;8.13;;;;;;;10.58;81.04;97003.44;5097037;28;20156;-63
2023/10/06 02:13:40;;;;;;;15.80;7.18;;;;;;;10.55;82.12;97003.53;5096995;28;20041;-65
2023/10/06 02:16:08;;;;;;;13.57;7.13;;;;;;;10.49;82.01;97005.44;5096963;28;20047;-66
2023/10/06 02:18:40;;;;;;;14.48;6.93;;;;;;;10.48;82.63;97010.72;5096763;28;20052;-63
2023/10/06 02:21:12;;;;;;;13.48;7.07;;;;;;;10.47;82.62;97011.59;5096763;28;20052;-62
2023/10/06 02:23:41;;;;;;;15.10;7.35;;;;;;;10.48;81.80;97010.72;5096913;28;20055;-63
2023/10/06 02:26:09;;;;;;;12.48;7.18;;;;;;;10.48;82.42;97010.72;5096724;28;20050;-65
2023/10/06 02:28:44;;;;;;;13.73;7.53;;;;;;;10.52;81.81;97006.25;5096553;28;20048;-63
2023/10/06 02:31:12;;;;;;;12.23;6.13;;;;;;;10.52;81.29;97009.72;5096640;28;20048;-63
2023/10/06 02:33:40;;;;;;;14.60;7.50;;;;;;;10.57;80.54;97006.97;5096572;28;20045;-65
2023/10/06 02:36:17;;;;;;;20.10;7.65;;;;;;;10.51;80.13;97008.03;5096480;28;20055;-64
2023/10/06 02:38:47;;;;;;;13.55;7.20;;;;;;;10.49;80.21;97002.84;5096510;28;20040;-64
2023/10/06 02:41:19;;;;;;;14.23;6.63;;;;;;;10.44;80.00;97003.81;5096509;28;20056;-65
2023/10/06 02:43:50;;;;;;;13.55;7.07;;;;;;;10.41;79.88;97003.94;5096356;28;20040;-65
2023/10/06 02:46:20;;;;;;;11.70;6.88;;;;;;;10.36;79.97;97007.53;5096307;28;20095;-66
2023/10/06 02:48:51;;;;;;;22.73;7.63;;;;;;;10.35;80.27;97008.44;5096163;28;20083;-64
2023/10/06 02:51:28;;;;;;;15.25;7.65;;;;;;;10.33;80.47;97005.00;5096198;28;20044;-64
2023/10/06 02:54:09;;;;;;;12.25;7.32;;;;;;;10.32;80.58;96994.59;5096210;28;20080;-64
2023/10/06 02:56:36;;;;;;;;;;;;;;;10.32;80.27;97005.91;5096552;28;20048;-66
2023/10/06 02:59:20;;;;;;;14.90;7.68;;;;;;;10.26;81.18;96998.25;5096086;28;20010;-64
2023/10/06 03:01:52;;;;;;;11.95;7.22;;;;;;;10.29;81.46;96989.47;5096151;28;20117;-65
2023/10/06 03:04:21;;;;;;;14.18;7.28;;;;;;;10.21;81.39;96964.38;5095947;28;20098;-65
2023/10/06 03:06:53;;;;;;;14.02;7.72;;;;;;;10.28;82.07;96980.75;5095885;28;20044;-62
2023/10/06 03:09:27;;;;;;;13.63;7.60;;;;;;;10.27;82.55;96978.19;5095905;28;20467;-63
2023/10/06 03:11:58;;;;;;;15.60;7.72;;;;;;;10.33;82.30;96988.47;5095767;28;20055;-64
2023/10/06 03:14:38;;;;;;;13.32;7.70;;;;;;;10.36;81.84;96981.38;5095722;28;20040;-63
2023/10/06 03:17:09;;;;;;;15.98;8.63;;;;;;;10.39;82.36;96985.69;5094788;28;20047;-64
2023/10/06 03:19:37;;;;;;;15.35;7.95;;;;;;;10.42;83.03;96989.94;5095319;28;20538;-63
2023/10/06 03:22:06;;;;;;;13.60;8.10;;;;;;;10.45;83.83;96995.97;5095634;28;20658;-65
2023/10/06 03:24:34;;;;;;;15.05;8.05;;;;;;;10.53;84.61;96981.81;5095570;28;20448;-62
2023/10/06 03:27:11;;;;;;;14.15;7.70;;;;;;;10.55;84.10;96985.22;5095521;28;20051;-65
2023/10/06 03:29:52;;;;;;;16.63;8.10;;;;;;;10.60;83.79;96985.94;5095430;28;20087;-63
2023/10/06 03:35:14;;;;;;;14.70;8.20;;;;;;;10.67;83.65;96976.13;5095082;28;20507;-64
2023/10/06 03:37:51;;;;;;;16.30;8.32;;;;;;;10.73;83.96;96978.56;5095255;28;20473;-65
2023/10/06 03:40:48;;;;;;;14.20;7.57;;;;;;;10.69;84.38;96980.41;5095336;28;20052;-63
2023/10/06 03:43:07;;;;;;;14.45;7.82;;;;;;;10.67;84.41;96987.47;5095032;28;20089;-64
2023/10/06 03:45:39;;;;;;;18.67;7.93;;;;;;;10.74;85.13;96978.53;5095187;28;20105;-65
2023/10/06 03:48:11;;;;;;;14.73;8.63;;;;;;;10.74;85.16;96983.75;5095108;28;20101;-63
2023/10/06 03:50:39;;;;;;;21.90;8.52;;;;;;;10.80;85.27;96982.69;5094948;28;20055;-63
2023/10/06 03:53:08;;;;;;;14.73;8.52;;;;;;;10.83;84.81;96981.72;5094870;28;20090;-65
2023/10/06 03:55:40;;;;;;;13.77;7.72;;;;;;;10.82;84.99;96982.66;5094861;28;20058;-66
2023/10/06 03:58:09;;;;;;;15.23;8.73;;;;;;;10.76;84.85;96986.31;5094842;28;20101;-63
2023/10/06 04:00:40;;;;;;;13.38;7.75;;;;;;;10.75;84.68;96982.00;5094875;28;20083;-62
2023/10/06 04:03:09;;;;;;;14.82;7.55;;;;;;;10.73;84.53;96982.06;5094609;28;20409;-65
2023/10/06 04:05:37;;;;;;;16.45;8.55;;;;;;;10.69;84.45;96985.66;5094773;28;20478;-65
2023/10/06 04:08:12;;;;;;;18.90;8.05;;;;;;;10.65;84.30;96985.81;5094799;28;20135;-62
2023/10/06 04:10:40;;;;;;;17.00;8.07;;;;;;;10.61;84.17;96991.13;5094782;28;20070;-65
2023/10/06 04:13:10;;;;;;;17.35;8.65;;;;;;;10.62;84.55;96989.34;5094521;28;20055;-67
2023/10/06 04:15:39;;;;;;;14.55;7.47;;;;;;;10.61;84.66;96987.66;5094568;28;20044;-64
2023/10/06 04:18:10;;;;;;;12.57;7.83;;;;;;;10.59;84.62;96982.47;5094519;28;20040;-64
2023/10/06 04:20:39;;;;;;;16.30;8.68;;;;;;;10.66;84.74;96987.50;5094649;28;20280;-66
2023/10/06 04:23:07;;;;;;;17.63;8.27;;;;;;;10.71;84.30;96994.31;5094392;28;20052;-67
2023/10/06 04:25:37;;;;;;;12.90;7.88;;;;;;;10.68;84.56;96990.91;5094413;28;20048;-63
2023/10/06 04:28:08;;;;;;;15.90;7.68;;;;;;;10.76;84.19;97002.03;5094391;28;20056;-67
2023/10/06 04:30:35;;;;;;;24.73;8.55;;;;;;;10.77;83.71;96995.88;5094059;28;20409;-62
2023/10/06 04:33:05;;;;;;;15.13;7.95;;;;;;;10.71;83.79;96994.31;5094092;28;20056;-64
2023/10/06 04:35:32;;;;;;;15.23;7.27;;;;;;;10.69;84.34;97001.34;5094150;28;20460;-65
2023/10/06 04:38:00;;;;;;;15.57;7.72;;;;;;;10.70;84.49;97003.06;5094170;28;20048;-66
2023/10/06 04:40:28;;;;;;;17.45;8.13;;;;;;;10.72;84.70;97000.41;5094167;28;20055;-64
2023/10/06 04:42:56;;;;;;;14.02;8.10;;;;;;;10.79;85.08;97006.28;5094079;28;20481;-66
2023/10/06 04:45:24;;;;;;;16.20;8.32;;;;;;;10.85;84.62;97003.50;5094087;28;20105;-66
2023/10/06 04:47:53;;;;;;;20.88;8.38;;;;;;;10.89;84.50;97007.72;5094044;28;20048;-65
2023/10/06 04:50:21;;;;;;;15.63;8.05;;;;;;;10.89;85.03;97007.72;5093882;28;20485;-65
2023/10/06 04:52:48;;;;;;;18.02;8.18;;;;;;;10.96;85.05;97006.59;5093885;28;20051;-66
2023/10/06 04:55:18;;;;;;;17.60;8.15;;;;;;;11.09;84.79;97007.09;5093885;28;20127;-66
2023/10/06 04:57:45;;;;;;;15.43;7.88;;;;;;;11.20;84.40;97006.72;5093811;28;20044;-66
2023/10/06 05:00:19;;;;;;;15.80;8.18;;;;;;;11.31;83.54;97011.59;5093743;28;20097;-66
2023/10/06 05:02:47;;;;;;;13.30;7.57;;;;;;;11.37;83.37;97002.69;5093341;28;20135;-65
2023/10/06 05:05:19;;;;;;;18.77;8.55;;;;;;;11.47;83.36;97014.56;5093608;28;20054;-66
2023/10/06 05:07:49;;;;;;;15.77;7.95;;;;;;;11.59;82.78;97012.44;5093619;28;20059;-66
2023/10/06 05:10:20;;;;;;;13.25;6.78;;;;;;;12.00;82.52;97015.34;5093635;28;20099;-64
2023/10/06 05:12:49;;;;;;;18.63;7.72;;;;;;;12.66;79.76;97015.59;5093362;28;20052;-65
2023/10/06 05:15:23;;;;;;;11.95;7.05;;;;;;;13.40;76.84;97014.38;5093531;28;20083;-63
2023/10/06 05:17:55;;;;;;;14.63;6.70;;;;;;;13.93;73.62;97021.00;5093506;28;20075;-63
2023/10/06 05:20:29;;;;;;;14.55;7.38;;;;;;;13.99;72.08;97018.94;5093508;28;20129;-64
2023/10/06 05:23:01;;;;;;;14.93;7.75;;;;;;;13.92;72.31;97014.00;5093382;28;20122;-65
2023/10/06 05:25:29;;;;;;;13.57;7.00;;;;;;;13.84;73.27;97011.69;5093460;28;20095;-63
2023/10/06 05:27:59;;;;;;;18.83;7.13;;;;;;;13.79;74.00;97017.19;5093338;28;20055;-66
2023/10/06 05:30:27;;;;;;;14.82;7.72;;;;;;;13.75;74.28;97013.81;5093227;28;20478;-66
2023/10/06 05:32:57;;;;;;;14.77;8.43;;;;;;;13.77;75.23;97005.88;5093185;28;20589;-64
2023/10/06 05:35:25;;;;;;;11.85;7.57;;;;;;;13.75;75.54;97015.59;5093273;28;20047;-62
2023/10/06 05:37:53;;;;;;;16.10;7.22;;;;;;;13.78;75.58;97015.47;5093175;28;20052;-63
2023/10/06 05:40:21;;;;;;;15.25;7.82;;;;;;;13.79;76.28;97019.81;5092517;28;20101;-65
2023/10/06 05:42:50;;;;;;;14.95;8.27;;;;;;;13.85;76.41;97027.41;5093081;28;20406;-63
2023/10/06 05:45:18;;;;;;;15.77;8.32;;;;;;;13.93;76.58;97024.47;5093399;28;20070;-65
2023/10/06 05:47:46;;;;;;;13.18;7.60;;;;;;;14.01;76.55;97029.38;5093105;28;20050;-63
2023/10/06 05:50:18;;;;;;;16.38;7.45;;;;;;;14.18;76.39;97030.41;5093037;28;20051;-63
2023/10/06 05:52:51;;;;;;;14.90;7.95;;;;;;;14.33;75.95;97024.44;5092975;28;20059;-63
2023/10/06 05:55:22;;;;;;;13.57;6.90;;;;;;;14.69;76.25;97029.88;5093003;28;20051;-62
2023/10/06 05:57:52;;;;;;;14.38;8.10;;;;;;;15.20;74.23;97030.09;5093002;28;20044;-65
2023/10/06 06:00:20;;;;;;;16.45;7.88;;;;;;;15.49;73.38;97032.22;5093059;28;20105;-64
2023/10/06 06:02:48;;;;;;;19.50;7.45;;;;;;;15.83;72.84;97038.41;5092738;28;20088;-62
2023/10/06 06:05:16;;;;;;;18.42;7.82;;;;;;;17.00;69.42;97031.38;5093054;28;20056;-66
2023/10/06 06:07:43;;;;;;;17.80;7.60;;;;;;;18.28;62.45;97037.25;5092959;28;20125;-62
2023/10/06 06:10:13;;;;;;;17.63;7.50;;;;;;;19.48;56.92;97035.03;5092810;28;20059;-65
2023/10/06 06:12:42;;;;;;;18.88;7.13;;;;;;;20.61;55.76;97041.56;5092748;28;20048;-63
2023/10/06 06:15:12;;;;;;;10.48;6.97;;;;;;;21.85;53.96;97044.16;5092819;28;20044;-64
2023/10/06 06:17:40;;;;;;;16.02;7.28;;;;;;;22.99;50.51;97050.56;5092773;28;20088;-62
2023/10/06 06:20:14;;;;;;;12.93;7.35;;;;;;;23.27;46.49;97053.63;5092878;28;20047;-65
2023/10/06 06:22:47;;;;;;;17.92;7.97;;;;;;;23.45;44.93;97061.97;5092659;28;20048;-63
2023/10/06 06:25:16;;;;;;;12.73;7.35;;;;;;;23.43;45.09;97058.59;5092632;28;20044;-65
2023/10/06 06:27:45;;;;;;;16.35;7.90;;;;;;;22.97;44.99;97051.50;5092721;28;20041;-64
2023/10/06 06:30:18;;;;;;;16.88;7.90;;;;;;;22.65;nan;97067.44;5092656;28;20127;-65
2023/10/06 06:32:48;;;;;;;16.33;7.78;;;;;;;22.38;47.45;97063.28;5092573;28;20134;-65
2023/10/06 06:35:16;;;;;;;22.45;7.95;;;;;;;22.04;48.68;97067.59;5092679;28;20052;-64
2023/10/06 06:37:43;;;;;;;14.88;7.30;;;;;;;21.84;49.35;97063.78;5092621;28;20047;-63
2023/10/06 06:40:13;;;;;;;17.33;8.63;;;;;;;21.69;49.27;97066.63;5092833;28;20389;-65
2023/10/06 06:42:41;;;;;;;17.40;8.60;;;;;;;21.57;50.37;97068.38;5092667;28;20391;-66
2023/10/06 06:45:13;;;;;;;17.17;8.13;;;;;;;21.34;51.15;97067.41;5092765;28;20048;-64
2023/10/06 06:47:41;;;;;;;20.77;8.02;;;;;;;21.24;49.82;97063.75;5092691;28;20044;-66
2023/10/06 06:50:12;;;;;;;11.98;7.53;;;;;;;21.23;49.51;97070.03;5092624;28;20503;-66
2023/10/06 06:52:39;;;;;;;18.00;7.35;;;;;;;21.21;49.67;97068.34;5094366;28;20098;-64
2023/10/06 06:55:12;;;;;;;13.68;6.97;;;;;;;21.30;49.72;97069.47;5096112;28;20048;-63
2023/10/06 06:57:43;;;;;;;18.23;8.00;;;;;;;21.53;49.33;97063.41;5096153;28;20048;-65
2023/10/06 07:00:17;;;;;;;16.15;8.35;;;;;;;22.24;47.23;97067.84;5096227;28;20478;-65
2023/10/06 07:02:45;;;;;;;15.80;7.63;;;;;;;22.70;45.70;97060.75;5095830;28;20089;-65
2023/10/06 07:05:13;;;;;;;17.00;7.53;;;;;;;23.01;45.67;97056.59;5096051;28;20052;-65
2023/10/06 07:07:43;;;;;;;18.15;7.35;;;;;;;23.63;43.00;97038.22;5095984;28;20047;-65
2023/10/06 07:10:13;;;;;;;16.40;7.25;;;;;;;24.27;42.67;97069.47;5095885;28;20044;-66
2023/10/06 07:12:42;;;;;;;15.85;7.28;;;;;;;24.80;41.71;97062.25;5095851;28;20101;-62
2023/10/06 07:15:16;;;;;;;19.23;7.00;;;;;;;25.28;40.24;97067.91;5095780;28;20044;-62
2023/10/06 07:17:45;;;;;;;17.20;7.38;;;;;;;25.54;39.63;97070.88;5095839;28;20091;-64
2023/10/06 07:20:16;;;;;;;14.63;7.55;;;;;;;25.61;39.96;97060.47;5095775;28;20075;-63
2023/10/06 07:22:45;;;;;;;14.85;7.65;;;;;;;26.02;38.75;97062.13;5095837;28;20044;-63
2023/10/06 07:25:15;;;;;;;16.50;7.82;;;;;;;26.37;37.36;97068.72;5095697;28;20109;-65
2023/10/06 07:27:43;;;;;;;13.65;7.40;;;;;;;26.70;37.13;97077.19;5095777;28;20048;-63
2023/10/06 07:30:14;;;;;;;12.98;7.38;;;;;;;27.05;36.88;97069.44;5095603;28;20097;-65
2023/10/06 07:32:42;;;;;;;17.25;7.78;;;;;;;26.99;36.82;97073.56;5095452;28;20375;-66
2023/10/06 07:35:12;;;;;;;18.35;8.40;;;;;;;27.00;35.84;97075.25;5095322;28;20448;-62
2023/10/06 07:37:42;;;;;;;17.10;7.45;;;;;;;26.73;36.53;97076.06;5095434;28;20043;-66
2023/10/06 07:40:14;;;;;;;14.40;7.65;;;;;;;26.70;35.65;97077.19;5095386;28;20557;-66
2023/10/06 07:42:46;;;;;;;13.65;7.28;;;;;;;26.56;37.20;97081.22;5095318;28;20058;-63
2023/10/06 07:45:15;;;;;;;20.42;7.45;;;;;;;26.04;37.43;97073.56;5095270;28;20048;-64
2023/10/06 07:47:43;;;;;;;15.05;7.90;;;;;;;25.84;38.04;97066.41;5095193;28;20056;-64
2023/10/06 07:50:13;;;;;;;20.58;8.07;;;;;;;25.51;39.19;97079.19;5095276;28;20046;-64
2023/10/06 07:52:41;;;;;;;21.30;7.93;;;;;;;25.20;39.35;97085.47;5095022;28;20072;-64
2023/10/06 07:55:09;;;;;;;17.45;8.25;;;;;;;25.39;39.49;97082.97;5094973;28;20288;-64
2023/10/06 07:57:41;;;;;;;21.83;9.18;;;;;;;25.45;39.29;97077.91;5094974;28;20076;-64
2023/10/06 08:00:09;;;;;;;22.95;8.68;;;;;;;25.19;40.06;97083.78;5094868;28;20044;-65
2023/10/06 08:02:39;;;;;;;18.70;7.97;;;;;;;24.95;40.18;97079.66;5094614;28;20126;-62
2023/10/06 08:05:11;;;;;;;15.33;8.03;;;;;;;24.86;39.58;97080.41;5094268;28;20391;-63
2023/10/06 08:07:38;;;;;;;12.27;8.13;;;;;;;24.99;39.56;97089.09;5094741;28;20467;-63
2023/10/06 08:10:07;;;;;;;18.48;8.32;;;;;;;25.08;39.56;97083.91;5094771;28;20054;-64
2023/10/06 08:12:34;;;;;;;20.08;8.75;;;;;;;25.27;39.24;97082.25;5094678;28;20064;-63
2023/10/06 08:15:06;;;;;;;19.42;7.85;;;;;;;25.33;39.08;97082.56;5094650;28;20076;-65
2023/10/06 08:17:33;;;;;;;13.00;8.45;;;;;;;25.35;39.45;97077.88;5094608;28;20127;-65
2023/10/06 08:20:00;;;;;;;19.83;8.05;;;;;;;25.20;39.38;97082.78;5094600;28;20044;-66
2023/10/06 08:22:29;;;;;;;28.50;8.88;;;;;;;25.26;39.18;97085.91;5094517;28;20485;-63
2023/10/06 08:24:56;;;;;;;19.48;8.95;;;;;;;25.11;39.33;97086.31;5094392;28;20131;-62
2023/10/06 08:27:24;;;;;;;15.55;8.43;;;;;;;25.23;39.52;97085.19;5094498;28;20099;-65
2023/10/06 08:29:52;;;;;;;14.60;8.10;;;;;;;25.25;38.88;97082.38;5094617;28;20048;-64
2023/10/06 08:32:21;;;;;;;20.33;8.73;;;;;;;25.34;39.76;97081.56;5094350;28;20123;-65
2023/10/06 08:34:48;;;;;;;14.25;8.25;;;;;;;25.23;38.36;97082.50;5094223;28;20417;-64
2023/10/06 08:37:16;;;;;;;18.10;8.73;;;;;;;25.04;38.82;97079.81;5094310;28;20067;-61
2023/10/06 08:39:46;;;;;;;17.35;8.80;;;;;;;24.95;39.38;97081.50;5094087;28;20047;-62
2023/10/06 08:42:16;;;;;;;19.63;8.55;;;;;;;25.06;39.45;97081.38;5094137;28;20097;-63
2023/10/06 08:44:44;;;;;;;17.70;8.70;;;;;;;25.02;39.62;97085.31;5094106;28;20052;-66
2023/10/06 08:47:15;;;;;;;16.67;8.75;;;;;;;24.83;40.33;97086.06;5093962;28;20492;-65
2023/10/06 08:49:42;;;;;;;22.75;8.93;;;;;;;24.77;39.70;97086.59;5093950;28;20087;-65
2023/10/06 08:52:12;;;;;;;15.45;8.85;;;;;;;24.65;39.58;97078.66;5094041;28;20055;-64
2023/10/06 08:54:43;;;;;;;20.17;8.90;;;;;;;24.72;39.98;97082.47;5093855;28;20178;-65
2023/10/06 08:57:11;;;;;;;18.92;8.70;;;;;;;24.73;39.72;97081.53;5093934;28;20559;-63
2023/10/06 08:59:39;;;;;;;18.67;9.07;;;;;;;24.58;40.68;97078.34;5093810;28;20040;-63
2023/10/06 09:02:09;;;;;;;18.42;8.48;;;;;;;24.67;40.71;97078.53;5093958;28;20059;-65
2023/10/06 09:04:37;;;;;;;16.35;8.80;;;;;;;24.68;39.62;97081.06;5093628;28;20055;-64
2023/10/06 09:07:09;;;;;;;21.15;8.48;;;;;;;24.53;40.05;97079.75;5093660;28;20048;-63
2023/10/06 09:09:37;;;;;;;20.80;8.73;;;;;;;24.54;41.00;97079.63;5093788;28;20082;-64
2023/10/06 09:12:06;;;;;;;17.33;8.15;;;;;;;24.70;40.86;97075.56;5093822;28;20044;-64
2023/10/06 09:14:33;;;;;;;19.10;9.48;;;;;;;24.74;39.57;97082.34;5093390;28;20090;-66
2023/10/06 09:17:01;;;;;;;21.13;8.55;;;;;;;24.72;40.41;97077.13;5093580;28;20086;-65
2023/10/06 09:19:47;;;;;;;12.20;8.52;;;;;;;25.01;40.77;97069.38;5093566;28;20143;-63
2023/10/06 09:22:15;;;;;;;14.88;8.63;;;;;;;25.29;38.92;97073.13;5093479;28;20459;-63
2023/10/06 09:24:42;;;;;;;21.17;8.88;;;;;;;25.47;38.74;97069.75;5093469;28;20486;-64
2023/10/06 09:27:25;;;;;;;17.00;7.93;;;;;;;25.74;38.69;97073.59;5093439;28;20486;-63
2023/10/06 09:29:59;;;;;;;19.35;8.85;;;;;;;26.04;37.17;97069.06;5091272;28;20074;-63
2023/10/06 09:32:27;;;;;;;17.15;8.35;;;;;;;26.18;36.70;97073.09;5093380;28;20048;-64
2023/10/06 09:34:57;;;;;;;16.13;8.15;;;;;;;26.19;37.26;97069.41;5093263;28;20054;-64
2023/10/06 09:37:24;;;;;;;12.95;8.38;;;;;;;26.18;37.37;97066.88;5093364;28;20048;-65
2023/10/06 09:39:59;;;;;;;14.27;8.90;;;;;;;26.21;37.27;97063.91;5093227;28;20481;-64
2023/10/06 09:42:30;;;;;;;15.88;8.50;;;;;;;26.10;37.00;97067.63;5093275;28;20048;-64
2023/10/06 09:45:08;;;;;;;18.88;8.82;;;;;;;25.96;36.13;97064.41;5093270;28;20047;-62
2023/10/06 09:47:37;;;;;;;18.13;8.38;;;;;;;25.77;37.67;97059.06;5093214;28;20081;-61
2023/10/06 09:50:06;;;;;;;15.70;8.52;;;;;;;25.42;37.97;97064.81;5093052;28;20101;-64
2023/10/06 09:52:35;;;;;;;13.75;7.90;;;;;;;25.24;37.81;97051.25;5093153;28;20048;-64
2023/10/06 09:55:04;;;;;;;17.92;8.55;;;;;;;25.05;38.71;97057.44;5092977;28;20048;-62
2023/10/06 09:57:34;;;;;;;22.15;9.70;;;;;;;24.72;38.65;97053.06;5093199;28;20045;-65
2023/10/06 10:00:02;;;;;;;19.50;8.83;;;;;;;24.63;39.20;97047.69;5093160;28;20143;-62
2023/10/06 10:02:32;;;;;;;16.27;8.57;;;;;;;24.58;39.69;97040.94;5092833;28;20052;-64
2023/10/06 10:05:01;;;;;;;14.85;8.48;;;;;;;24.70;39.31;97046.16;5093176;28;20132;-64
2023/10/06 10:07:30;;;;;;;19.50;9.07;;;;;;;24.55;39.20;97051.03;5093168;28;20127;-65
2023/10/06 10:09:58;;;;;;;15.55;9.13;;;;;;;24.45;40.05;97054.53;5092910;28;20055;-62
2023/10/06 10:12:37;;;;;;;11.82;8.35;;;;;;;24.29;40.31;97056.84;5092867;28;20052;-65
2023/10/06 10:15:19;;;;;;;12.90;8.65;;;;;;;24.26;41.08;97046.41;5092864;28;20052;-61
2023/10/06 10:17:56;;;;;;;22.15;9.60;;;;;;;24.12;39.52;97045.75;5092949;28;20075;-63
2023/10/06 10:20:25;;;;;;;20.48;8.90;;;;;;;24.04;40.25;97034.84;5092883;28;20382;-64
2023/10/06 10:22:56;;;;;;;17.52;9.38;;;;;;;24.21;40.10;97028.09;5092876;28;20052;-63
2023/10/06 10:25:24;;;;;;;14.15;8.55;;;;;;;24.40;40.54;97029.16;5092868;28;20139;-65
2023/10/06 10:28:20;;;;;;;18.90;9.35;;;;;;;24.42;39.93;97020.03;5095148;28;20127;-64
2023/10/06 10:30:56;;;;;;;19.17;8.73;;;;;;;24.34;40.11;97020.72;5061033;28;20050;-64
2023/10/06 10:33:25;;;;;;;15.15;8.75;;;;;;;24.46;40.43;97023.28;5096540;28;20044;-64
2023/10/06 10:36:20;;;;;;;14.52;8.80;;;;;;;24.34;39.96;97011.84;5096571;28;20044;-61
2023/10/06 10:38:58;;;;;;;14.73;9.13;;;;;;;24.30;40.12;97010.41;5096577;28;20040;-62
2023/10/06 10:41:27;;;;;;;24.80;9.10;;;;;;;24.39;40.02;97003.41;5096517;28;20079;-65
2023/10/06 10:43:56;;;;;;;17.38;9.07;;;;;;;24.23;40.04;97004.78;5096342;28;20055;-64
2023/10/06 10:46:34;;;;;;;22.02;9.25;;;;;;;24.19;39.89;97000.66;5096393;28;20069;-61
2023/10/06 10:49:03;;;;;;;13.68;8.98;;;;;;;24.07;40.11;97006.06;5096331;28;20044;-64
2023/10/06 10:51:33;;;;;;;17.48;9.18;;;;;;;23.96;40.35;96995.47;5096250;28;20048;-60
2023/10/06 10:54:01;;;;;;;20.80;8.73;;;;;;;23.93;40.34;96996.53;5096047;28;20044;-63
2023/10/06 10:56:37;;;;;;;17.40;9.30;;;;;;;24.03;40.87;96993.09;5096267;28;20543;-64
2023/10/06 10:59:08;;;;;;;18.13;9.25;;;;;;;24.15;40.29;96983.19;5096197;28;20486;-61
2023/10/06 11:01:37;;;;;;;17.90;8.40;;;;;;;24.23;40.65;96994.09;5096227;28;20044;-62
2023/10/06 11:04:31;;;;;;;17.05;7.95;;;;;;;24.08;40.63;96982.88;5096035;28;20452;-64
2023/10/06 11:07:09;;;;;;;16.35;8.95;;;;;;;23.80;41.12;96983.41;5095921;28;20062;-65
2023/10/06 11:09:41;;;;;;;19.98;8.73;;;;;;;23.61;41.11;96976.13;5096020;28;20048;-63
2023/10/06 11:12:25;;;;;;;13.25;8.13;;;;;;;23.59;41.48;96968.25;5096016;28;20075;-64
2023/10/06 11:14:56;;;;;;;19.55;8.65;;;;;;;23.62;41.67;96969.78;5094289;28;20044;-60
2023/10/06 11:17:26;;;;;;;15.75;9.05;;;;;;;23.58;41.28;96961.22;5095774;28;20048;-64
2023/10/06 11:20:13;;;;;;;13.25;8.48;;;;;;;23.53;41.17;96954.56;5095712;28;20047;-64
2023/10/06 11:22:41;;;;;;;15.85;8.27;;;;;;;23.62;40.94;96960.97;5095659;28;20504;-62
2023/10/06 11:25:10;;;;;;;13.02;8.15;;;;;;;23.70;41.45;96964.66;5095808;28;20044;-63
2023/10/06 11:27:39;;;;;;;12.70;9.10;;;;;;;23.69;40.99;96962.13;5095740;28;20132;-63
2023/10/06 11:30:14;;;;;;;10.80;8.32;;;;;;;23.71;41.08;96962.81;5095531;28;20070;-62
2023/10/06 11:32:42;;;;;;;12.32;8.73;;;;;;;23.59;41.27;96957.56;5095584;28;20398;-63
2023/10/06 11:35:11;;;;;;;11.32;7.80;;;;;;;23.57;41.49;96964.84;5095458;28;20433;-62
2023/10/06 11:37:39;;;;;;;30.10;9.20;;;;;;;23.72;41.68;96957.34;5095530;28;20048;-65
2023/10/06 11:40:08;;;;;;;16.17;9.27;;;;;;;23.80;40.75;96956.69;5094415;28;20051;-62
2023/10/06 11:42:36;;;;;;;15.77;9.10;;;;;;;23.90;40.69;96955.91;5095394;28;20054;-62
2023/10/06 11:45:11;;;;;;;14.70;8.68;;;;;;;23.95;40.12;96954.53;5095179;28;20055;-63